Time;durP1;ratioP1;P1;durP2;ratioP2;P2;SDS_P1;SDS_P2;PMS_P1;PMS_P2;Temp;Humidity;BMP_temperature;BMP_pressure;BME280_temperature;BME280_humidity;BME280_pressure;Samples;Min_cycle;Max_cycle;Signal;HPM_P1;HPM_P2
2023/08/17 00:01:44;;;;;;;3.97;2.03;;;19.90;99.90;;;;;;5088941;28;20869;-62
2023/08/17 00:04:12;;;;;;;2.17;2.07;;;19.90;99.90;;;;;;5088946;28;20448;-63
2023/08/17 00:06:39;;;;;;;2.47;2.27;;;19.90;99.90;;;;;;5087742;28;20526;-63
2023/08/17 00:09:07;;;;;;;3.20;2.90;;;19.90;99.90;;;;;;5088500;28;20502;-62
2023/08/17 00:11:33;;;;;;;3.40;2.70;;;19.90;99.90;;;;;;5089118;28;21282;-62
2023/08/17 00:14:00;;;;;;;4.13;2.50;;;19.80;99.90;;;;;;5088739;28;21261;-63
2023/08/17 00:16:27;;;;;;;5.60;2.80;;;19.80;99.90;;;;;;5088228;28;20443;-62
2023/08/17 00:18:54;;;;;;;3.43;3.13;;;19.80;99.90;;;;;;5088993;28;20535;-62
2023/08/17 00:21:22;;;;;;;2.90;2.70;;;19.80;99.90;;;;;;5088649;28;20530;-63
2023/08/17 00:23:49;;;;;;;4.23;2.90;;;19.80;99.90;;;;;;5088867;28;20455;-62
2023/08/17 00:26:16;;;;;;;3.93;3.13;;;19.80;99.90;;;;;;5087923;28;20442;-62
2023/08/17 00:28:44;;;;;;;3.53;3.23;;;19.70;99.90;;;;;;5088746;28;20450;-62
2023/08/17 00:31:10;;;;;;;3.13;2.80;;;19.70;99.90;;;;;;5086762;28;20460;-63
2023/08/17 00:33:37;;;;;;;4.83;3.30;;;19.70;99.90;;;;;;5088476;28;20453;-62
2023/08/17 00:36:05;;;;;;;3.63;3.30;;;19.70;99.90;;;;;;5087350;28;20744;-63
2023/08/17 00:38:33;;;;;;;3.13;2.93;;;19.60;99.90;;;;;;5087793;28;20529;-62
2023/08/17 00:41:00;;;;;;;4.53;2.63;;;19.60;99.90;;;;;;5088434;28;20488;-62
2023/08/17 00:43:26;;;;;;;3.43;2.80;;;19.60;99.90;;;;;;5087231;28;20472;-62
2023/08/17 00:45:54;;;;;;;2.93;2.73;;;19.50;99.90;;;;;;5087722;28;20522;-62
2023/08/17 00:48:21;;;;;;;3.77;2.60;;;19.50;99.90;;;;;;5072305;28;20443;-62
2023/08/17 00:50:49;;;;;;;4.43;4.07;;;19.50;99.90;;;;;;5068214;28;20551;-62
2023/08/17 00:53:17;;;;;;;3.10;2.90;;;19.50;99.90;;;;;;5068135;28;20479;-63
2023/08/17 00:55:46;;;;;;;2.97;2.67;;;19.40;99.90;;;;;;5067930;28;20542;-63
2023/08/17 00:58:13;;;;;;;3.27;3.07;;;19.40;99.90;;;;;;5067430;28;20458;-63
2023/08/17 01:00:40;;;;;;;4.40;2.93;;;19.40;99.90;;;;;;5067987;28;20486;-62
2023/08/17 01:03:07;;;;;;;5.30;3.10;;;19.50;99.90;;;;;;5067951;28;20563;-62
2023/08/17 01:05:34;;;;;;;4.20;3.57;;;19.50;99.90;;;;;;5068231;28;20456;-62
2023/08/17 01:08:01;;;;;;;2.53;2.00;;;19.50;99.90;;;;;;5067320;28;20492;-63
2023/08/17 01:10:37;;;;;;;4.93;2.93;;;19.50;99.90;;;;;;5068176;28;20776;-62
2023/08/17 01:13:10;;;;;;;3.20;2.23;;;19.50;99.90;;;;;;5068000;28;20473;-63
2023/08/17 01:15:41;;;;;;;3.10;2.90;;;19.50;99.90;;;;;;5068025;28;20442;-60
2023/08/17 01:18:17;;;;;;;3.23;3.03;;;19.50;99.90;;;;;;5067337;28;20530;-62
2023/08/17 01:20:45;;;;;;;2.90;2.70;;;19.50;99.90;;;;;;5067949;28;20494;-62
2023/08/17 01:23:13;;;;;;;2.60;2.40;;;19.50;99.90;;;;;;5067638;28;20571;-62
2023/08/17 01:25:39;;;;;;;2.07;1.97;;;19.50;99.90;;;;;;5067512;28;20895;-62
2023/08/17 01:28:07;;;;;;;4.47;2.90;;;19.40;99.90;;;;;;5067012;28;20449;-62
2023/08/17 01:30:39;;;;;;;2.80;2.50;;;19.40;99.90;;;;;;5066617;28;20529;-63
2023/08/17 01:33:09;;;;;;;2.50;2.40;;;19.40;99.90;;;;;;5067811;28;20479;-62
2023/08/17 01:35:40;;;;;;;2.97;2.70;;;19.40;99.90;;;;;;5067697;28;20534;-62
2023/08/17 01:38:13;;;;;;;3.43;2.87;;;19.40;99.90;;;;;;5066943;28;20463;-62
2023/08/17 01:40:43;;;;;;;3.03;2.77;;;19.40;99.90;;;;;;5067799;28;20527;-63
2023/08/17 01:43:12;;;;;;;2.87;2.60;;;19.40;99.90;;;;;;5067853;28;20843;-63
2023/08/17 01:45:39;;;;;;;3.53;3.23;;;19.40;99.90;;;;;;5067755;28;20859;-62
2023/08/17 01:48:06;;;;;;;4.30;3.20;;;19.40;99.90;;;;;;5066876;28;20458;-63
2023/08/17 01:50:33;;;;;;;2.67;2.47;;;19.40;99.90;;;;;;5071667;28;20531;-62
2023/08/17 01:53:00;;;;;;;2.93;2.70;;;19.40;99.90;;;;;;5072013;28;20472;-62
2023/08/17 01:55:27;;;;;;;2.80;2.60;;;19.40;99.90;;;;;;5072216;28;20461;-62
2023/08/17 01:57:55;;;;;;;3.23;2.93;;;19.40;99.90;;;;;;5071708;28;20473;-62
2023/08/17 02:00:22;;;;;;;3.30;3.00;;;19.40;99.90;;;;;;5072606;28;20493;-62
2023/08/17 02:02:49;;;;;;;4.00;3.33;;;19.30;99.90;;;;;;5071726;28;20482;-62
2023/08/17 02:05:16;;;;;;;4.53;2.57;;;19.30;99.90;;;;;;5071393;28;20455;-62
2023/08/17 02:07:43;;;;;;;4.60;3.67;;;19.30;99.90;;;;;;5071409;28;21310;-62
2023/08/17 02:10:10;;;;;;;4.77;3.13;;;19.30;99.90;;;;;;5071926;28;20461;-63
2023/08/17 02:12:37;;;;;;;3.10;2.80;;;19.30;99.90;;;;;;5072007;28;20472;-63
2023/08/17 02:15:06;;;;;;;3.50;2.57;;;19.30;99.90;;;;;;5071586;28;20562;-63
2023/08/17 02:17:33;;;;;;;3.30;2.60;;;19.30;99.90;;;;;;5070689;28;20967;-63
2023/08/17 02:20:00;;;;;;;2.80;2.60;;;19.20;99.90;;;;;;5071203;28;20550;-63
2023/08/17 02:22:26;;;;;;;3.67;2.93;;;19.20;99.90;;;;;;5071338;28;20563;-63
2023/08/17 02:24:53;;;;;;;3.00;2.80;;;19.20;99.90;;;;;;5071129;28;20454;-63
2023/08/17 02:27:20;;;;;;;2.80;2.60;;;19.10;99.90;;;;;;5070364;28;21070;-63
2023/08/17 02:29:47;;;;;;;3.10;2.80;;;19.10;99.90;;;;;;5070496;28;20453;-63
2023/08/17 02:32:15;;;;;;;2.50;2.30;;;19.10;99.90;;;;;;5069711;28;21024;-63
2023/08/17 02:34:42;;;;;;;2.80;2.50;;;19.10;99.90;;;;;;5070683;28;20449;-63
2023/08/17 02:37:09;;;;;;;5.87;3.00;;;19.00;99.90;;;;;;5070286;28;20451;-63
2023/08/17 02:39:35;;;;;;;2.83;2.50;;;19.00;99.90;;;;;;5070674;28;21111;-63
2023/08/17 02:42:02;;;;;;;3.10;2.30;;;19.00;99.90;;;;;;5070484;28;20501;-63
2023/08/17 02:44:29;;;;;;;3.20;2.90;;;19.00;99.90;;;;;;5070114;28;20439;-63
2023/08/17 02:46:56;;;;;;;3.93;3.23;;;18.90;99.90;;;;;;5069783;28;20530;-63
2023/08/17 02:49:24;;;;;;;2.30;2.10;;;18.90;99.90;;;;;;5070010;28;20451;-63
2023/08/17 02:51:51;;;;;;;2.63;2.43;;;18.90;99.90;;;;;;5070338;28;20467;-62
2023/08/17 02:54:18;;;;;;;3.00;2.70;;;18.80;99.90;;;;;;5070172;28;20457;-62
2023/08/17 02:56:44;;;;;;;4.33;2.73;;;18.80;99.90;;;;;;5069529;28;20453;-63
2023/08/17 02:59:11;;;;;;;3.77;2.97;;;18.80;99.90;;;;;;5070069;28;20461;-63
2023/08/17 03:01:38;;;;;;;2.10;2.00;;;18.70;99.90;;;;;;5069232;28;20495;-63
2023/08/17 03:04:06;;;;;;;3.63;2.70;;;18.70;99.90;;;;;;5070800;28;20482;-63
2023/08/17 03:06:34;;;;;;;3.50;3.30;;;18.70;99.90;;;;;;5069800;28;20524;-63
2023/08/17 03:09:00;;;;;;;3.50;2.97;;;18.60;99.90;;;;;;5070447;28;20812;-63
2023/08/17 03:11:27;;;;;;;3.03;2.50;;;18.60;99.90;;;;;;5069913;28;20467;-63
2023/08/17 03:13:59;;;;;;;3.23;2.63;;;18.60;99.90;;;;;;5070095;28;20932;-63
2023/08/17 03:16:26;;;;;;;2.90;2.70;;;18.60;99.90;;;;;;5069313;28;20465;-63
2023/08/17 03:18:53;;;;;;;9.53;3.23;;;18.60;99.90;;;;;;5070136;28;20447;-63
2023/08/17 03:21:20;;;;;;;2.83;2.50;;;18.60;99.90;;;;;;5069725;28;21033;-63
2023/08/17 03:23:49;;;;;;;3.53;2.77;;;18.60;99.90;;;;;;5069808;28;20450;-63
2023/08/17 03:26:16;;;;;;;3.70;3.30;;;18.50;99.90;;;;;;5069836;28;20454;-62
2023/08/17 03:28:43;;;;;;;3.77;3.33;;;18.50;99.90;;;;;;5089374;28;20963;-62
2023/08/17 03:31:10;;;;;;;2.93;2.73;;;18.50;99.90;;;;;;5085545;28;20832;-63
2023/08/17 03:33:37;;;;;;;2.40;2.20;;;18.50;99.90;;;;;;5072669;28;20445;-62
2023/08/17 03:36:04;;;;;;;2.83;2.30;;;18.40;99.90;;;;;;5069264;28;20443;-63
2023/08/17 03:38:31;;;;;;;3.03;2.83;;;18.40;99.90;;;;;;5069533;28;20450;-62
2023/08/17 03:40:59;;;;;;;4.40;3.00;;;18.40;99.90;;;;;;5069821;28;21205;-63
2023/08/17 03:43:26;;;;;;;2.60;2.40;;;18.40;99.90;;;;;;5069542;28;20564;-63
2023/08/17 03:45:53;;;;;;;12.17;3.20;;;18.40;99.90;;;;;;5069085;28;20455;-63
2023/08/17 03:48:21;;;;;;;3.07;2.70;;;18.40;99.90;;;;;;5069672;28;20530;-62
2023/08/17 03:50:48;;;;;;;6.60;3.10;;;18.40;99.90;;;;;;5069543;28;20454;-63
2023/08/17 03:53:15;;;;;;;2.80;2.60;;;18.40;99.90;;;;;;5069181;28;20470;-63
2023/08/17 03:55:46;;;;;;;3.17;2.87;;;18.30;99.90;;;;;;5069846;28;20457;-63
2023/08/17 03:58:14;;;;;;;2.60;2.40;;;18.30;99.90;;;;;;5078010;28;20536;-62
2023/08/17 04:00:42;;;;;;;3.93;2.57;;;18.30;99.90;;;;;;5079628;28;20489;-62
2023/08/17 04:03:09;;;;;;;3.17;2.50;;;18.30;99.90;;;;;;5069159;28;20566;-63
2023/08/17 04:05:36;;;;;;;3.90;2.50;;;18.20;99.90;;;;;;5068938;28;20537;-63
2023/08/17 04:08:03;;;;;;;6.80;2.60;;;18.20;99.90;;;;;;5068539;28;20446;-63
2023/08/17 04:10:30;;;;;;;3.60;2.80;;;18.20;99.90;;;;;;5069221;28;20451;-63
2023/08/17 04:12:57;;;;;;;3.23;2.80;;;18.20;99.90;;;;;;5068784;28;20554;-62
2023/08/17 04:15:25;;;;;;;3.33;2.87;;;18.20;99.90;;;;;;5069098;28;20546;-63
2023/08/17 04:17:52;;;;;;;5.13;3.10;;;18.20;99.90;;;;;;5068951;28;20447;-63
2023/08/17 04:20:19;;;;;;;3.53;2.60;;;18.20;99.90;;;;;;5069615;28;20463;-63
2023/08/17 04:22:46;;;;;;;5.97;2.67;;;18.20;99.90;;;;;;5069457;28;20482;-63
2023/08/17 04:25:14;;;;;;;4.90;2.67;;;18.20;99.90;;;;;;5069499;28;21069;-62
2023/08/17 04:27:41;;;;;;;2.90;2.70;;;18.10;99.90;;;;;;5068442;28;20530;-62
2023/08/17 04:30:09;;;;;;;3.63;3.03;;;18.20;99.90;;;;;;5068545;28;20445;-63
2023/08/17 04:32:37;;;;;;;3.57;3.37;;;18.20;99.90;;;;;;5068939;28;20505;-63
2023/08/17 04:35:05;;;;;;;3.70;3.40;;;18.10;99.90;;;;;;5069044;28;20458;-63
2023/08/17 04:37:32;;;;;;;3.43;3.10;;;18.10;99.90;;;;;;5068196;28;21026;-63
2023/08/17 04:39:58;;;;;;;3.57;3.27;;;18.10;99.90;;;;;;5070222;28;20458;-63
2023/08/17 04:42:25;;;;;;;4.40;3.70;;;18.10;99.90;;;;;;5089043;28;20500;-62
2023/08/17 04:44:52;;;;;;;3.83;3.53;;;18.10;99.90;;;;;;5089227;28;20456;-62
2023/08/17 04:47:19;;;;;;;4.93;3.50;;;18.10;99.90;;;;;;5088685;28;20454;-62
2023/08/17 04:49:47;;;;;;;3.97;2.67;;;18.10;99.90;;;;;;5089662;28;20452;-62
2023/08/17 04:52:14;;;;;;;4.00;3.00;;;18.10;99.90;;;;;;5089028;28;20470;-63
2023/08/17 04:54:41;;;;;;;4.43;4.13;;;18.10;99.90;;;;;;5087846;28;20556;-63
2023/08/17 04:57:07;;;;;;;3.83;3.53;;;18.10;99.90;;;;;;5087925;28;20453;-62
2023/08/17 04:59:34;;;;;;;4.20;3.77;;;18.10;99.90;;;;;;5089355;28;20445;-62
2023/08/17 05:02:01;;;;;;;6.50;3.43;;;18.10;99.90;;;;;;5088986;28;20500;-62
2023/08/17 05:04:28;;;;;;;4.10;3.80;;;18.10;99.90;;;;;;5088870;28;20832;-62
2023/08/17 05:06:56;;;;;;;4.33;3.93;;;18.10;99.90;;;;;;5088280;28;20934;-62
2023/08/17 05:09:23;;;;;;;3.70;2.63;;;18.10;99.90;;;;;;5089236;28;20492;-62
2023/08/17 05:11:50;;;;;;;3.83;3.17;;;18.20;99.90;;;;;;5089071;28;20978;-62
2023/08/17 05:14:17;;;;;;;4.83;3.03;;;18.20;99.90;;;;;;5088659;28;20455;-62
2023/08/17 05:16:44;;;;;;;3.97;3.50;;;18.20;99.90;;;;;;5088571;28;20927;-63
2023/08/17 05:19:11;;;;;;;3.93;3.63;;;18.20;99.90;;;;;;5088956;28;20457;-62
2023/08/17 05:21:37;;;;;;;3.10;2.90;;;18.20;99.90;;;;;;5088772;28;20609;-62
2023/08/17 05:24:06;;;;;;;3.37;2.90;;;18.20;99.90;;;;;;5088370;28;20962;-62
2023/08/17 05:26:33;;;;;;;6.10;3.10;;;18.30;99.90;;;;;;5088486;28;20449;-62
2023/08/17 05:29:00;;;;;;;9.73;4.03;;;18.30;99.90;;;;;;5089116;28;20478;-63
2023/08/17 05:31:27;;;;;;;2.77;2.47;;;18.30;99.90;;;;;;5088380;28;22167;-62
2023/08/17 05:33:54;;;;;;;4.23;2.90;;;18.30;99.90;;;;;;5088696;28;20454;-62
2023/08/17 05:36:20;;;;;;;4.20;3.90;;;18.30;99.90;;;;;;5087543;28;20541;-63
2023/08/17 05:38:47;;;;;;;4.00;3.00;;;18.40;99.90;;;;;;5088568;28;21003;-62
2023/08/17 05:41:17;;;;;;;3.70;3.00;;;18.40;99.90;;;;;;5088246;28;20488;-62
2023/08/17 05:43:44;;;;;;;4.17;3.63;;;18.40;99.90;;;;;;5088923;28;20458;-62
2023/08/17 05:46:11;;;;;;;5.10;4.20;;;18.50;99.90;;;;;;5087863;28;20456;-62
2023/08/17 05:48:38;;;;;;;6.40;3.33;;;18.60;99.90;;;;;;5088471;28;20450;-63
2023/08/17 05:51:04;;;;;;;3.33;3.03;;;18.70;99.90;;;;;;5088722;28;20471;-63
2023/08/17 05:53:31;;;;;;;8.17;4.00;;;18.80;99.90;;;;;;5088726;28;20500;-63
2023/08/17 05:55:58;;;;;;;3.60;3.30;;;18.90;99.90;;;;;;5087668;28;20949;-63
2023/08/17 05:58:26;;;;;;;3.83;3.53;;;19.00;99.90;;;;;;5088167;28;20453;-62
2023/08/17 06:00:53;;;;;;;3.50;3.00;;;19.10;99.90;;;;;;5088411;28;20450;-62
2023/08/17 06:03:20;;;;;;;3.50;3.20;;;19.20;99.90;;;;;;5088151;28;20466;-62
2023/08/17 06:05:47;;;;;;;6.07;3.40;;;19.40;99.90;;;;;;5088043;28;20450;-63
2023/08/17 06:08:13;;;;;;;3.07;2.77;;;19.50;99.90;;;;;;5087272;28;20946;-63
2023/08/17 06:10:40;;;;;;;4.37;3.47;;;19.60;99.90;;;;;;5088309;28;20453;-62
2023/08/17 06:13:07;;;;;;;3.37;3.10;;;19.70;99.90;;;;;;5087871;28;20480;-61
2023/08/17 06:15:35;;;;;;;3.67;3.30;;;19.90;99.90;;;;;;5088187;28;20537;-62
2023/08/17 06:18:02;;;;;;;5.10;3.30;;;20.00;99.90;;;;;;5087213;28;20819;-62
2023/08/17 06:20:29;;;;;;;4.60;4.20;;;20.10;99.90;;;;;;5087937;28;20478;-62
2023/08/17 06:22:56;;;;;;;4.40;4.10;;;20.30;99.90;;;;;;5087842;28;20504;-62
2023/08/17 06:25:22;;;;;;;6.23;3.80;;;20.40;99.90;;;;;;5087823;28;20964;-62
2023/08/17 06:27:50;;;;;;;4.20;3.90;;;20.50;99.90;;;;;;5087116;28;20540;-62
2023/08/17 06:30:17;;;;;;;5.83;4.03;;;20.60;99.90;;;;;;5087496;28;20458;-62
2023/08/17 06:32:46;;;;;;;6.00;4.00;;;20.70;99.90;;;;;;5087745;28;20557;-63
2023/08/17 06:35:12;;;;;;;5.07;4.67;;;20.80;99.90;;;;;;5088145;28;20447;-63
2023/08/17 06:37:39;;;;;;;3.27;2.97;;;21.00;99.90;;;;;;5091554;28;20448;-63
2023/08/17 06:40:07;;;;;;;3.80;3.50;;;21.10;99.90;;;;;;5091762;28;20534;-62
2023/08/17 06:42:34;;;;;;;3.80;3.43;;;21.20;99.90;;;;;;5091636;28;20528;-62
2023/08/17 06:45:01;;;;;;;3.20;2.90;;;21.20;99.90;;;;;;5090827;28;20455;-62
2023/08/17 06:47:28;;;;;;;4.30;3.90;;;21.30;99.90;;;;;;5090348;28;20451;-62
2023/08/17 06:49:57;;;;;;;4.53;3.97;;;21.40;99.90;;;;;;5091389;28;20828;-62
2023/08/17 06:52:24;;;;;;;4.53;4.10;;;21.50;99.90;;;;;;5091059;28;20471;-62
2023/08/17 06:54:51;;;;;;;4.30;3.70;;;21.70;99.90;;;;;;5090974;28;20452;-62
2023/08/17 06:57:18;;;;;;;4.40;4.10;;;21.80;99.90;;;;;;5090793;28;20457;-62
2023/08/17 06:59:46;;;;;;;3.33;3.13;;;21.80;99.90;;;;;;5091386;28;20967;-62
2023/08/17 07:02:12;;;;;;;5.93;3.77;;;21.90;99.90;;;;;;5090170;28;20503;-63
2023/08/17 07:04:39;;;;;;;4.10;3.67;;;22.00;99.90;;;;;;5095745;28;20445;-62
2023/08/17 07:07:07;;;;;;;3.40;3.13;;;22.10;99.90;;;;;;5089789;28;21025;-63
2023/08/17 07:09:34;;;;;;;4.53;3.60;;;22.10;99.90;;;;;;5090185;28;20449;-62
2023/08/17 07:12:01;;;;;;;4.43;3.13;;;22.10;99.90;;;;;;5090311;28;20468;-62
2023/08/17 07:14:29;;;;;;;3.63;3.33;;;22.20;99.90;;;;;;5089616;28;20460;-62
2023/08/17 07:16:55;;;;;;;4.00;3.70;;;22.20;99.90;;;;;;5089282;28;20823;-62
2023/08/17 07:19:23;;;;;;;4.40;4.10;;;22.30;99.90;;;;;;5089855;28;20460;-62
2023/08/17 07:21:49;;;;;;;4.07;3.57;;;22.30;99.90;;;;;;5089685;28;20486;-61
2023/08/17 07:24:18;;;;;;;3.63;3.40;;;22.30;99.90;;;;;;5088941;28;20446;-62
2023/08/17 07:26:45;;;;;;;4.80;3.93;;;22.40;99.90;;;;;;5088309;28;20449;-62
2023/08/17 07:29:12;;;;;;;4.07;3.53;;;22.40;99.90;;;;;;5089668;28;20545;-61
2023/08/17 07:31:39;;;;;;;3.50;3.23;;;22.50;99.90;;;;;;5089449;28;20498;-61
2023/08/17 07:34:06;;;;;;;4.10;3.80;;;22.50;99.90;;;;;;5088821;28;20540;-61
2023/08/17 07:36:34;;;;;;;5.33;3.70;;;22.60;99.90;;;;;;5088915;28;20449;-62
2023/08/17 07:39:01;;;;;;;3.73;3.43;;;22.70;99.90;;;;;;5089661;28;20453;-62
2023/08/17 07:41:29;;;;;;;5.60;3.90;;;22.80;99.90;;;;;;5089045;28;20453;-62
2023/08/17 07:43:55;;;;;;;4.23;3.83;;;22.90;99.90;;;;;;5089188;28;21050;-62
2023/08/17 07:46:22;;;;;;;4.70;4.27;;;23.10;99.90;;;;;;5088179;28;20474;-62
2023/08/17 07:48:49;;;;;;;5.13;4.80;;;23.20;99.90;;;;;;5089527;28;20486;-62
2023/08/17 07:51:16;;;;;;;4.30;3.97;;;23.30;99.90;;;;;;5087827;28;20464;-61
2023/08/17 07:53:43;;;;;;;7.20;4.10;;;23.40;99.90;;;;;;5087972;28;20438;-62
2023/08/17 07:56:10;;;;;;;3.50;3.30;;;23.40;99.90;;;;;;5086680;28;20462;-61
2023/08/17 07:58:38;;;;;;;3.57;3.27;;;23.50;99.90;;;;;;5089130;28;20530;-60
2023/08/17 08:01:05;;;;;;;6.50;4.63;;;23.60;99.90;;;;;;5084647;28;20544;-61
2023/08/17 08:03:33;;;;;;;4.60;4.20;;;23.70;99.90;;;;;;5087960;28;20504;-62
2023/08/17 08:05:59;;;;;;;8.13;4.83;;;23.80;99.90;;;;;;5082989;28;20797;-62
2023/08/17 08:08:26;;;;;;;4.67;4.37;;;23.80;99.90;;;;;;5068945;28;20538;-62
2023/08/17 08:10:55;;;;;;;4.93;4.43;;;23.90;99.90;;;;;;5075816;28;20530;-61
2023/08/17 08:13:22;;;;;;;4.80;4.40;;;23.90;99.90;;;;;;5088269;28;20468;-61
2023/08/17 08:15:50;;;;;;;5.30;4.83;;;24.00;99.90;;;;;;5088096;28;20459;-63
2023/08/17 08:18:17;;;;;;;5.53;5.10;;;24.00;99.90;;;;;;5086425;28;21100;-62
2023/08/17 08:20:44;;;;;;;5.10;4.60;;;24.10;99.90;;;;;;5085284;28;21160;-61
2023/08/17 08:23:11;;;;;;;6.03;5.53;;;24.10;99.90;;;;;;5087985;28;20855;-62
2023/08/17 08:25:38;;;;;;;5.30;4.80;;;24.10;99.90;;;;;;5085929;28;20553;-62
2023/08/17 08:28:05;;;;;;;6.50;6.00;;;24.10;99.90;;;;;;5087009;28;20847;-62
2023/08/17 08:30:32;;;;;;;5.90;5.50;;;24.10;99.90;;;;;;5085448;28;21173;-65
2023/08/17 08:33:00;;;;;;;8.07;5.93;;;24.10;99.90;;;;;;5087655;28;20553;-65
2023/08/17 08:35:28;;;;;;;6.07;5.60;;;24.10;99.90;;;;;;5080283;28;20451;-65
2023/08/17 08:37:58;;;;;;;4.80;4.50;;;24.10;99.90;;;;;;5084585;28;20542;-64
2023/08/17 08:40:29;;;;;;;5.40;5.00;;;24.20;99.90;;;;;;5086978;28;20542;-65
2023/08/17 08:42:57;;;;;;;5.77;5.03;;;24.20;99.90;;;;;;5079435;28;20486;-64
2023/08/17 08:45:24;;;;;;;5.67;5.27;;;24.20;99.90;;;;;;5086500;28;20808;-64
2023/08/17 08:47:53;;;;;;;5.23;4.83;;;24.20;99.90;;;;;;5083549;28;20522;-65
2023/08/17 08:50:25;;;;;;;5.67;5.27;;;24.20;99.90;;;;;;5085214;28;20477;-64
2023/08/17 08:52:59;;;;;;;6.87;6.17;;;24.30;99.90;;;;;;5087073;28;20551;-62
2023/08/17 08:55:29;;;;;;;6.57;5.97;;;24.40;99.90;;;;;;5086243;28;20452;-63
2023/08/17 08:57:58;;;;;;;7.03;6.50;;;24.50;99.90;;;;;;5081132;28;20440;-63
2023/08/17 09:00:25;;;;;;;7.10;6.50;;;24.60;99.90;;;;;;5085768;28;20467;-63
2023/08/17 09:02:53;;;;;;;7.90;7.03;;;24.70;99.90;;;;;;5087006;28;20491;-63
2023/08/17 09:05:22;;;;;;;7.00;6.40;;;24.80;99.90;;;;;;5085032;28;20451;-63
2023/08/17 09:07:50;;;;;;;6.23;5.70;;;24.80;99.90;;;;;;5086015;28;21006;-63
2023/08/17 09:10:17;;;;;;;6.93;6.23;;;24.90;99.90;;;;;;5079524;28;20463;-63
2023/08/17 09:12:46;;;;;;;7.20;6.50;;;25.00;99.90;;;;;;5086579;28;20881;-62
2023/08/17 09:15:13;;;;;;;7.23;6.50;;;25.10;99.90;;;;;;5085936;28;20535;-63
2023/08/17 09:17:40;;;;;;;6.17;5.73;;;25.10;99.90;;;;;;5085753;28;20824;-63
2023/08/17 09:20:10;;;;;;;7.50;7.00;;;25.30;99.90;;;;;;5086690;28;21030;-61
2023/08/17 09:22:42;;;;;;;5.73;5.33;;;25.40;99.90;;;;;;5086908;28;20527;-63
2023/08/17 09:25:10;;;;;;;9.27;6.80;;;25.40;99.90;;;;;;5086645;28;20441;-61
2023/08/17 09:27:37;;;;;;;6.60;6.10;;;25.50;99.90;;;;;;5086371;28;20453;-62
2023/08/17 09:30:06;;;;;;;7.33;6.73;;;25.50;99.90;;;;;;5087028;28;20454;-62
2023/08/17 09:32:33;;;;;;;5.83;5.27;;;25.50;99.90;;;;;;5087047;28;20576;-62
2023/08/17 09:35:03;;;;;;;7.20;6.63;;;25.60;99.90;;;;;;5086766;28;20441;-62
2023/08/17 09:37:30;;;;;;;5.40;4.90;;;25.70;99.90;;;;;;5085921;28;20458;-62
2023/08/17 09:39:58;;;;;;;7.77;7.10;;;25.70;99.90;;;;;;5086809;28;20453;-62
2023/08/17 09:42:27;;;;;;;7.60;7.00;;;25.70;99.90;;;;;;5086424;28;21011;-62
2023/08/17 09:44:55;;;;;;;8.00;7.37;;;25.70;99.90;;;;;;5086448;28;20452;-62
2023/08/17 09:47:23;;;;;;;7.60;7.10;;;25.70;99.90;;;;;;5085857;28;20468;-62
2023/08/17 09:49:50;;;;;;;8.27;7.57;;;25.70;99.90;;;;;;5086630;28;20457;-62
2023/08/17 09:52:17;;;;;;;7.73;7.07;;;25.80;99.90;;;;;;5086412;28;20470;-65
2023/08/17 09:54:46;;;;;;;7.63;6.93;;;25.80;99.90;;;;;;5086449;28;21134;-65
2023/08/17 09:57:15;;;;;;;8.07;7.47;;;26.00;99.90;;;;;;5085941;28;20445;-65
2023/08/17 09:59:42;;;;;;;6.37;5.87;;;26.10;99.90;;;;;;5086532;28;21006;-66
2023/08/17 10:02:18;;;;;;;8.37;7.67;;;26.10;99.90;;;;;;5086711;28;20921;-65
2023/08/17 10:04:49;;;;;;;7.63;7.10;;;26.20;99.90;;;;;;5085327;28;20445;-66
2023/08/17 10:07:19;;;;;;;7.37;6.87;;;26.30;99.90;;;;;;5084944;28;20564;-66
2023/08/17 10:09:54;;;;;;;6.40;5.90;;;26.30;99.90;;;;;;5086905;28;20457;-66
2023/08/17 10:12:27;;;;;;;6.80;6.40;;;26.40;99.90;;;;;;5089244;28;20846;-66
2023/08/17 10:15:04;;;;;;;7.67;7.03;;;26.50;99.90;;;;;;5090253;28;21107;-66
2023/08/17 10:17:47;;;;;;;7.70;7.10;;;26.50;99.90;;;;;;5089376;28;20459;-65
2023/08/17 10:20:16;;;;;;;7.33;6.80;;;26.60;99.90;;;;;;5090416;28;20877;-66
2023/08/17 10:22:50;;;;;;;7.40;6.90;;;26.70;99.90;;;;;;5090210;28;21083;-66
2023/08/17 10:25:17;;;;;;;7.97;7.47;;;26.80;99.90;;;;;;5090035;28;20458;-66
2023/08/17 10:27:46;;;;;;;8.20;7.60;;;26.80;99.90;;;;;;5088129;28;20478;-65
2023/08/17 10:30:13;;;;;;;8.10;7.40;;;26.80;99.90;;;;;;5089804;28;21145;-65
2023/08/17 10:32:45;;;;;;;7.90;7.30;;;26.90;99.90;;;;;;5089825;28;20480;-65
2023/08/17 10:35:12;;;;;;;8.70;8.10;;;26.90;99.90;;;;;;5089909;28;20481;-66
2023/08/17 10:37:40;;;;;;;8.17;7.57;;;27.00;99.90;;;;;;5089234;28;20546;-66
2023/08/17 10:40:08;;;;;;;8.47;7.87;;;27.00;99.90;;;;;;5090113;28;20447;-66
2023/08/17 10:42:36;;;;;;;7.90;7.30;;;27.20;99.90;;;;;;5089973;28;20863;-66
2023/08/17 10:45:28;;;;;;;8.37;7.67;;;27.30;99.90;;;;;;5073246;28;20451;-65
2023/08/17 10:48:21;;;;;;;7.80;7.13;;;27.40;99.90;;;;;;5088635;28;20474;-66
2023/08/17 10:51:01;;;;;;;7.60;7.10;;;27.50;99.90;;;;;;5089507;28;20451;-66
2023/08/17 10:53:34;;;;;;;7.50;6.83;;;27.60;99.90;;;;;;5089796;28;20456;-66
2023/08/17 10:56:01;;;;;;;7.90;7.20;;;27.60;99.90;;;;;;5089136;28;20507;-66
2023/08/17 10:58:33;;;;;;;8.67;7.97;;;27.60;99.90;;;;;;5089740;28;20534;-66
2023/08/17 11:01:02;;;;;;;7.20;6.80;;;27.70;99.90;;;;;;5089596;28;20445;-66
2023/08/17 11:03:29;;;;;;;7.07;6.47;;;27.80;99.90;;;;;;5089494;28;20497;-65
2023/08/17 11:05:56;;;;;;;7.13;6.63;;;27.80;99.90;;;;;;5088814;28;21121;-66
2023/08/17 11:08:29;;;;;;;7.60;7.00;;;27.80;99.90;;;;;;5089490;28;20456;-66
2023/08/17 11:11:03;;;;;;;9.07;8.43;;;27.90;99.90;;;;;;5089365;28;20450;-66
2023/08/17 11:13:31;;;;;;;7.90;7.40;;;28.00;99.90;;;;;;5089230;28;20550;-66
2023/08/17 11:15:59;;;;;;;7.70;7.20;;;28.00;99.90;;;;;;5088346;28;20521;-65
2023/08/17 11:18:27;;;;;;;9.57;8.77;;;28.10;99.90;;;;;;5088801;28;20476;-66
2023/08/17 11:20:55;;;;;;;8.57;7.90;;;28.10;99.90;;;;;;5088932;28;20567;-66
2023/08/17 11:23:24;;;;;;;8.70;8.00;;;28.20;99.90;;;;;;5088703;28;21086;-66
2023/08/17 11:25:53;;;;;;;8.47;7.60;;;28.20;99.90;;;;;;5088626;28;20444;-66
2023/08/17 11:28:20;;;;;;;8.13;7.53;;;28.30;99.90;;;;;;5088826;28;20535;-66
2023/08/17 11:30:47;;;;;;;8.27;7.77;;;28.30;99.90;;;;;;5087592;28;20448;-66
2023/08/17 11:33:14;;;;;;;8.40;7.90;;;28.40;99.90;;;;;;5087998;28;20461;-66
2023/08/17 11:35:42;;;;;;;8.80;8.30;;;28.50;99.90;;;;;;5088737;28;20456;-66
2023/08/17 11:38:09;;;;;;;9.07;7.60;;;28.50;99.90;;;;;;5087679;28;20475;-66
2023/08/17 11:40:36;;;;;;;8.73;8.13;;;28.60;99.90;;;;;;5088251;28;20823;-66
2023/08/17 11:43:03;;;;;;;9.13;8.43;;;28.60;99.90;;;;;;5070029;28;20692;-66
2023/08/17 11:45:30;;;;;;;8.60;8.00;;;28.70;99.90;;;;;;5088465;28;20447;-66
2023/08/17 11:47:57;;;;;;;9.13;8.60;;;28.80;99.90;;;;;;5087772;28;20464;-66
2023/08/17 11:50:26;;;;;;;8.80;8.20;;;28.90;99.90;;;;;;5088491;28;21311;-66
2023/08/17 11:52:54;;;;;;;9.97;9.17;;;29.00;99.90;;;;;;5088517;28;20473;-66
2023/08/17 11:55:21;;;;;;;8.80;8.20;;;29.10;99.90;;;;;;5088670;28;20443;-66
2023/08/17 11:57:48;;;;;;;8.40;7.80;;;29.20;99.90;;;;;;5088075;28;20940;-66
2023/08/17 12:00:20;;;;;;;9.83;9.17;;;29.30;99.90;;;;;;5088220;28;20443;-66
2023/08/17 12:02:51;;;;;;;9.03;8.43;;;29.50;99.90;;;;;;5087264;28;20519;-66
2023/08/17 12:05:23;;;;;;;8.90;8.30;;;29.60;99.90;;;;;;5086952;28;20461;-66
2023/08/17 12:07:50;;;;;;;9.47;8.77;;;29.70;99.90;;;;;;5087596;28;20521;-66
2023/08/17 12:10:19;;;;;;;9.50;8.70;;;29.70;99.90;;;;;;5087327;28;20482;-66
2023/08/17 12:12:47;;;;;;;8.60;8.00;;;29.80;99.90;;;;;;5087451;28;20476;-65
2023/08/17 12:15:15;;;;;;;9.83;9.07;;;29.90;99.90;;;;;;5086062;28;20469;-66
2023/08/17 12:17:46;;;;;;;9.03;8.27;;;29.90;99.90;;;;;;5086876;28;20528;-66
2023/08/17 12:20:17;;;;;;;9.13;8.30;;;30.00;99.90;;;;;;5087398;28;20457;-66
2023/08/17 12:22:44;;;;;;;8.50;7.80;;;30.20;99.90;;;;;;5087560;28;20468;-66
2023/08/17 12:25:12;;;;;;;9.10;8.30;;;30.30;99.90;;;;;;5087429;28;20439;-67
2023/08/17 12:27:40;;;;;;;8.43;7.83;;;30.50;99.90;;;;;;5087294;28;20451;-66
2023/08/17 12:30:13;;;;;;;9.60;8.93;;;30.50;99.90;;;;;;5081791;28;20455;-66
2023/08/17 12:32:40;;;;;;;9.03;8.33;;;30.60;99.90;;;;;;5086279;28;20477;-66
2023/08/17 12:35:07;;;;;;;8.53;7.90;;;30.80;99.90;;;;;;5087313;28;20451;-66
2023/08/17 12:37:34;;;;;;;9.93;9.20;;;30.90;99.90;;;;;;5086275;28;20463;-66
2023/08/17 12:40:02;;;;;;;8.97;8.30;;;31.00;99.90;;;;;;5086817;28;20476;-67
2023/08/17 12:42:29;;;;;;;9.83;8.83;;;31.00;99.90;;;;;;5086973;28;20474;-66
2023/08/17 12:44:57;;;;;;;10.10;9.30;;;31.10;99.90;;;;;;5086016;28;20585;-66
2023/08/17 12:47:24;;;;;;;9.10;8.60;;;31.30;99.90;;;;;;5086766;28;20445;-66
2023/08/17 12:49:51;;;;;;;9.70;9.00;;;31.40;99.90;;;;;;5086477;28;20464;-67
2023/08/17 12:52:18;;;;;;;9.83;8.37;;;31.50;99.90;;;;;;5087318;28;20462;-66